sensor_id;sensor_type;location;lat;lon;timestamp;P1;durP1;ratioP1;P2;durP2;ratioP2
22711;SDS011;11523;50.390;8.072;2022-11-20T04:56:21;19.67;;;13.23;;
22711;SDS011;11523;50.390;8.072;2022-11-20T04:58:54;18.80;;;14.55;;
22711;SDS011;11523;50.390;8.072;2022-11-20T05:01:21;18.80;;;13.13;;
22711;SDS011;11523;50.390;8.072;2022-11-20T05:03:48;18.55;;;12.35;;
22711;SDS011;11523;50.390;8.072;2022-11-20T05:06:14;18.90;;;12.32;;
22711;SDS011;11523;50.390;8.072;2022-11-20T05:08:41;18.33;;;12.95;;
22711;SDS011;11523;50.390;8.072;2022-11-20T05:11:11;21.83;;;14.38;;
22711;SDS011;11523;50.390;8.072;2022-11-20T05:13:37;20.25;;;14.57;;
22711;SDS011;11523;50.390;8.072;2022-11-20T05:16:04;17.73;;;12.90;;
22711;SDS011;11523;50.390;8.072;2022-11-20T05:18:30;17.42;;;13.43;;
22711;SDS011;11523;50.390;8.072;2022-11-20T05:20:57;18.42;;;13.25;;
22711;SDS011;11523;50.390;8.072;2022-11-20T05:23:23;18.48;;;13.57;;
22711;SDS011;11523;50.390;8.072;2022-11-20T05:25:53;18.58;;;13.55;;
22711;SDS011;11523;50.390;8.072;2022-11-20T05:28:19;19.35;;;14.02;;
22711;SDS011;11523;50.390;8.072;2022-11-20T05:30:45;17.70;;;13.13;;
22711;SDS011;11523;50.390;8.072;2022-11-20T05:33:11;20.98;;;13.20;;
22711;SDS011;11523;50.390;8.072;2022-11-20T05:35:37;21.70;;;14.00;;
22711;SDS011;11523;50.390;8.072;2022-11-20T05:38:03;19.98;;;13.40;;
22711;SDS011;11523;50.390;8.072;2022-11-20T05:40:29;19.85;;;13.35;;
22711;SDS011;11523;50.390;8.072;2022-11-20T05:42:55;18.35;;;13.00;;
22711;SDS011;11523;50.390;8.072;2022-11-20T05:45:21;20.23;;;14.00;;
22711;SDS011;11523;50.390;8.072;2022-11-20T05:47:47;21.10;;;14.07;;
22711;SDS011;11523;50.390;8.072;2022-11-20T05:50:13;20.45;;;14.18;;
22711;SDS011;11523;50.390;8.072;2022-11-20T05:52:39;21.50;;;14.27;;
22711;SDS011;11523;50.390;8.072;2022-11-20T05:55:05;22.67;;;15.30;;
22711;SDS011;11523;50.390;8.072;2022-11-20T05:57:31;23.48;;;15.80;;
22711;SDS011;11523;50.390;8.072;2022-11-20T05:59:57;26.25;;;16.52;;
22711;SDS011;11523;50.390;8.072;2022-11-20T06:02:23;25.85;;;16.10;;
22711;SDS011;11523;50.390;8.072;2022-11-20T06:04:49;23.50;;;16.83;;
22711;SDS011;11523;50.390;8.072;2022-11-20T06:07:15;21.17;;;14.95;;
22711;SDS011;11523;50.390;8.072;2022-11-20T06:09:42;24.95;;;17.02;;
22711;SDS011;11523;50.390;8.072;2022-11-20T06:12:08;24.88;;;16.55;;
22711;SDS011;11523;50.390;8.072;2022-11-20T06:14:34;25.27;;;17.13;;
22711;SDS011;11523;50.390;8.072;2022-11-20T06:17:00;23.52;;;16.10;;
22711;SDS011;11523;50.390;8.072;2022-11-20T06:19:26;26.10;;;17.20;;
22711;SDS011;11523;50.390;8.072;2022-11-20T06:21:52;25.50;;;16.63;;
22711;SDS011;11523;50.390;8.072;2022-11-20T06:24:18;26.73;;;16.55;;
22711;SDS011;11523;50.390;8.072;2022-11-20T06:26:44;23.63;;;16.45;;
22711;SDS011;11523;50.390;8.072;2022-11-20T06:29:10;29.02;;;19.05;;
22711;SDS011;11523;50.390;8.072;2022-11-20T06:31:36;28.23;;;18.42;;
22711;SDS011;11523;50.390;8.072;2022-11-20T06:34:03;31.80;;;19.08;;
22711;SDS011;11523;50.390;8.072;2022-11-20T06:36:30;29.23;;;18.27;;
22711;SDS011;11523;50.390;8.072;2022-11-20T06:38:56;28.45;;;17.70;;
22711;SDS011;11523;50.390;8.072;2022-11-20T06:41:22;28.88;;;16.55;;
22711;SDS011;11523;50.390;8.072;2022-11-20T06:43:48;28.73;;;18.35;;
22711;SDS011;11523;50.390;8.072;2022-11-20T06:46:15;29.55;;;17.83;;
22711;SDS011;11523;50.390;8.072;2022-11-20T06:48:44;27.50;;;18.17;;
22711;SDS011;11523;50.390;8.072;2022-11-20T06:51:10;27.88;;;17.20;;
22711;SDS011;11523;50.390;8.072;2022-11-20T06:53:37;27.27;;;17.75;;
22711;SDS011;11523;50.390;8.072;2022-11-20T06:56:03;28.42;;;17.52;;
22711;SDS011;11523;50.390;8.072;2022-11-20T06:58:30;26.83;;;16.60;;
22711;SDS011;11523;50.390;8.072;2022-11-20T07:01:04;25.60;;;16.85;;
22711;SDS011;11523;50.390;8.072;2022-11-20T07:03:30;22.77;;;12.00;;
22711;SDS011;11523;50.390;8.072;2022-11-20T07:05:56;25.15;;;16.75;;
22711;SDS011;11523;50.390;8.072;2022-11-20T07:08:22;28.85;;;17.67;;
22711;SDS011;11523;50.390;8.072;2022-11-20T07:10:48;26.85;;;16.90;;
22711;SDS011;11523;50.390;8.072;2022-11-20T07:13:14;25.45;;;16.83;;
22711;SDS011;11523;50.390;8.072;2022-11-20T07:15:40;24.83;;;16.52;;
22711;SDS011;11523;50.390;8.072;2022-11-20T07:18:06;27.13;;;17.52;;
22711;SDS011;11523;50.390;8.072;2022-11-20T07:20:32;28.48;;;17.55;;
22711;SDS011;11523;50.390;8.072;2022-11-20T07:22:58;27.30;;;17.20;;
22711;SDS011;11523;50.390;8.072;2022-11-20T07:25:24;28.92;;;17.35;;
22711;SDS011;11523;50.390;8.072;2022-11-20T07:27:51;28.90;;;18.83;;
22711;SDS011;11523;50.390;8.072;2022-11-20T07:30:17;27.67;;;18.65;;
22711;SDS011;11523;50.390;8.072;2022-11-20T07:32:46;30.42;;;18.48;;
22711;SDS011;11523;50.390;8.072;2022-11-20T07:35:12;27.30;;;17.58;;
22711;SDS011;11523;50.390;8.072;2022-11-20T07:37:38;29.98;;;18.70;;
22711;SDS011;11523;50.390;8.072;2022-11-20T07:40:04;30.75;;;18.73;;
22711;SDS011;11523;50.390;8.072;2022-11-20T07:42:30;35.53;;;19.58;;
22711;SDS011;11523;50.390;8.072;2022-11-20T07:44:56;28.63;;;18.08;;
22711;SDS011;11523;50.390;8.072;2022-11-20T07:47:22;30.13;;;19.15;;
22711;SDS011;11523;50.390;8.072;2022-11-20T07:49:48;28.83;;;17.70;;
22711;SDS011;11523;50.390;8.072;2022-11-20T07:52:14;28.20;;;17.90;;
22711;SDS011;11523;50.390;8.072;2022-11-20T07:54:39;34.03;;;19.40;;
22711;SDS011;11523;50.390;8.072;2022-11-20T07:57:05;28.98;;;18.67;;
22711;SDS011;11523;50.390;8.072;2022-11-20T07:59:31;32.25;;;19.35;;
22711;SDS011;11523;50.390;8.072;2022-11-20T08:01:57;30.60;;;19.30;;
22711;SDS011;11523;50.390;8.072;2022-11-20T08:04:23;30.65;;;19.35;;
22711;SDS011;11523;50.390;8.072;2022-11-20T08:06:49;33.58;;;20.38;;
22711;SDS011;11523;50.390;8.072;2022-11-20T08:09:15;34.00;;;20.73;;
22711;SDS011;11523;50.390;8.072;2022-11-20T08:11:41;36.55;;;21.10;;
22711;SDS011;11523;50.390;8.072;2022-11-20T08:14:25;31.38;;;20.15;;
22711;SDS011;11523;50.390;8.072;2022-11-20T08:16:52;30.60;;;20.45;;
22711;SDS011;11523;50.390;8.072;2022-11-20T08:19:18;32.92;;;20.17;;
22711;SDS011;11523;50.390;8.072;2022-11-20T08:21:44;33.67;;;20.27;;
22711;SDS011;11523;50.390;8.072;2022-11-20T08:24:11;34.35;;;21.08;;
22711;SDS011;11523;50.390;8.072;2022-11-20T08:26:37;32.58;;;20.98;;
22711;SDS011;11523;50.390;8.072;2022-11-20T08:29:04;35.20;;;21.15;;
22711;SDS011;11523;50.390;8.072;2022-11-20T08:31:30;31.13;;;19.92;;
22711;SDS011;11523;50.390;8.072;2022-11-20T08:33:56;36.03;;;21.77;;
22711;SDS011;11523;50.390;8.072;2022-11-20T08:36:23;33.08;;;20.30;;
22711;SDS011;11523;50.390;8.072;2022-11-20T08:38:50;33.72;;;21.38;;
22711;SDS011;11523;50.390;8.072;2022-11-20T08:41:16;39.97;;;23.85;;
22711;SDS011;11523;50.390;8.072;2022-11-20T08:43:53;40.38;;;21.80;;
22711;SDS011;11523;50.390;8.072;2022-11-20T08:46:19;40.78;;;22.40;;
22711;SDS011;11523;50.390;8.072;2022-11-20T08:48:45;38.20;;;22.70;;
22711;SDS011;11523;50.390;8.072;2022-11-20T08:51:11;37.55;;;22.70;;
22711;SDS011;11523;50.390;8.072;2022-11-20T08:53:38;37.17;;;20.67;;
22711;SDS011;11523;50.390;8.072;2022-11-20T08:56:04;36.50;;;21.77;;
22711;SDS011;11523;50.390;8.072;2022-11-20T08:58:30;37.28;;;20.67;;
22711;SDS011;11523;50.390;8.072;2022-11-20T09:00:56;36.95;;;22.70;;
22711;SDS011;11523;50.390;8.072;2022-11-20T09:03:22;35.95;;;21.58;;
22711;SDS011;11523;50.390;8.072;2022-11-20T09:05:48;37.97;;;22.98;;
22711;SDS011;11523;50.390;8.072;2022-11-20T09:08:15;37.10;;;22.52;;
22711;SDS011;11523;50.390;8.072;2022-11-20T09:10:41;38.92;;;23.05;;
22711;SDS011;11523;50.390;8.072;2022-11-20T09:13:07;36.53;;;22.33;;
22711;SDS011;11523;50.390;8.072;2022-11-20T09:15:33;36.40;;;22.10;;
22711;SDS011;11523;50.390;8.072;2022-11-20T09:18:00;37.15;;;23.45;;
22711;SDS011;11523;50.390;8.072;2022-11-20T09:20:26;36.95;;;22.88;;
22711;SDS011;11523;50.390;8.072;2022-11-20T09:22:53;37.90;;;22.75;;
22711;SDS011;11523;50.390;8.072;2022-11-20T09:25:19;33.65;;;20.92;;
22711;SDS011;11523;50.390;8.072;2022-11-20T09:27:45;36.28;;;21.90;;
22711;SDS011;11523;50.390;8.072;2022-11-20T09:30:11;34.05;;;21.67;;
22711;SDS011;11523;50.390;8.072;2022-11-20T09:32:41;36.15;;;22.45;;
22711;SDS011;11523;50.390;8.072;2022-11-20T09:35:07;34.85;;;21.02;;
22711;SDS011;11523;50.390;8.072;2022-11-20T09:37:33;34.28;;;21.85;;
22711;SDS011;11523;50.390;8.072;2022-11-20T09:39:59;36.45;;;23.35;;
22711;SDS011;11523;50.390;8.072;2022-11-20T09:42:37;35.83;;;21.85;;
22711;SDS011;11523;50.390;8.072;2022-11-20T09:47:47;36.85;;;21.90;;
22711;SDS011;11523;50.390;8.072;2022-11-20T09:50:32;37.88;;;22.08;;
22711;SDS011;11523;50.390;8.072;2022-11-20T09:53:20;34.30;;;21.10;;
22711;SDS011;11523;50.390;8.072;2022-11-20T09:55:47;37.47;;;21.95;;
22711;SDS011;11523;50.390;8.072;2022-11-20T09:58:28;36.25;;;22.17;;
22711;SDS011;11523;50.390;8.072;2022-11-20T10:00:59;35.67;;;21.23;;
22711;SDS011;11523;50.390;8.072;2022-11-20T10:03:31;34.50;;;21.70;;
22711;SDS011;11523;50.390;8.072;2022-11-20T10:06:01;33.85;;;20.75;;
22711;SDS011;11523;50.390;8.072;2022-11-20T10:08:28;32.35;;;21.20;;
22711;SDS011;11523;50.390;8.072;2022-11-20T10:21:39;35.10;;;21.00;;
22711;SDS011;11523;50.390;8.072;2022-11-20T10:24:24;33.17;;;20.77;;
22711;SDS011;11523;50.390;8.072;2022-11-20T10:29:34;37.08;;;21.20;;
22711;SDS011;11523;50.390;8.072;2022-11-20T10:32:03;34.05;;;21.50;;
22711;SDS011;11523;50.390;8.072;2022-11-20T10:34:32;36.40;;;21.23;;
22711;SDS011;11523;50.390;8.072;2022-11-20T10:37:09;28.27;;;18.73;;
22711;SDS011;11523;50.390;8.072;2022-11-20T10:42:29;32.90;;;20.65;;
22711;SDS011;11523;50.390;8.072;2022-11-20T10:45:02;29.50;;;18.88;;
22711;SDS011;11523;50.390;8.072;2022-11-20T10:47:34;33.50;;;18.67;;
22711;SDS011;11523;50.390;8.072;2022-11-20T10:50:02;31.52;;;19.52;;
22711;SDS011;11523;50.390;8.072;2022-11-20T11:00:30;28.23;;;18.70;;
22711;SDS011;11523;50.390;8.072;2022-11-20T11:02:56;30.77;;;19.02;;
22711;SDS011;11523;50.390;8.072;2022-11-20T11:05:50;31.67;;;19.70;;
22711;SDS011;11523;50.390;8.072;2022-11-20T11:08:18;30.25;;;20.10;;
22711;SDS011;11523;50.390;8.072;2022-11-20T11:13:21;27.92;;;18.30;;
22711;SDS011;11523;50.390;8.072;2022-11-20T11:15:47;30.80;;;19.48;;
22711;SDS011;11523;50.390;8.072;2022-11-20T11:18:22;30.98;;;19.60;;
22711;SDS011;11523;50.390;8.072;2022-11-20T11:20:52;30.95;;;19.92;;
22711;SDS011;11523;50.390;8.072;2022-11-20T11:25:57;31.15;;;20.17;;
22711;SDS011;11523;50.390;8.072;2022-11-20T11:28:24;29.13;;;18.98;;
22711;SDS011;11523;50.390;8.072;2022-11-20T11:30:52;27.55;;;18.67;;
22711;SDS011;11523;50.390;8.072;2022-11-20T11:33:23;28.80;;;19.63;;
22711;SDS011;11523;50.390;8.072;2022-11-20T11:35:50;32.80;;;20.38;;
22711;SDS011;11523;50.390;8.072;2022-11-20T11:38:35;25.13;;;18.40;;
22711;SDS011;11523;50.390;8.072;2022-11-20T11:41:03;29.33;;;19.02;;
22711;SDS011;11523;50.390;8.072;2022-11-20T11:43:30;32.58;;;20.83;;
22711;SDS011;11523;50.390;8.072;2022-11-20T11:46:24;29.40;;;19.92;;
22711;SDS011;11523;50.390;8.072;2022-11-20T11:48:57;29.02;;;20.42;;
22711;SDS011;11523;50.390;8.072;2022-11-20T11:54:13;30.00;;;20.25;;
22711;SDS011;11523;50.390;8.072;2022-11-20T11:56:40;29.23;;;19.13;;
22711;SDS011;11523;50.390;8.072;2022-11-20T11:59:08;31.70;;;21.50;;
22711;SDS011;11523;50.390;8.072;2022-11-20T12:01:38;29.88;;;19.73;;
22711;SDS011;11523;50.390;8.072;2022-11-20T12:04:12;29.35;;;19.33;;
22711;SDS011;11523;50.390;8.072;2022-11-20T12:06:41;29.10;;;19.48;;
22711;SDS011;11523;50.390;8.072;2022-11-20T12:09:09;30.45;;;18.98;;
22711;SDS011;11523;50.390;8.072;2022-11-20T12:12:18;31.65;;;20.42;;
22711;SDS011;11523;50.390;8.072;2022-11-20T12:14:35;28.20;;;19.60;;
22711;SDS011;11523;50.390;8.072;2022-11-20T12:17:02;29.02;;;19.15;;
22711;SDS011;11523;50.390;8.072;2022-11-20T12:19:31;28.30;;;19.13;;
22711;SDS011;11523;50.390;8.072;2022-11-20T12:22:47;25.40;;;18.27;;
22711;SDS011;11523;50.390;8.072;2022-11-20T12:27:36;29.58;;;18.98;;
22711;SDS011;11523;50.390;8.072;2022-11-20T12:30:12;27.35;;;17.77;;
22711;SDS011;11523;50.390;8.072;2022-11-20T12:42:44;24.17;;;17.40;;
22711;SDS011;11523;50.390;8.072;2022-11-20T12:45:34;25.23;;;16.73;;
22711;SDS011;11523;50.390;8.072;2022-11-20T12:53:23;28.23;;;18.20;;
22711;SDS011;11523;50.390;8.072;2022-11-20T12:56:04;35.50;;;21.17;;
22711;SDS011;11523;50.390;8.072;2022-11-20T13:06:57;82.15;;;31.50;;
22711;SDS011;11523;50.390;8.072;2022-11-20T13:09:23;36.70;;;20.73;;
22711;SDS011;11523;50.390;8.072;2022-11-20T13:19:35;31.80;;;20.05;;
22711;SDS011;11523;50.390;8.072;2022-11-20T13:22:01;35.65;;;21.00;;
22711;SDS011;11523;50.390;8.072;2022-11-20T13:24:28;37.75;;;21.88;;
22711;SDS011;11523;50.390;8.072;2022-11-20T13:29:33;35.50;;;21.60;;
22711;SDS011;11523;50.390;8.072;2022-11-20T13:32:15;40.80;;;22.17;;
22711;SDS011;11523;50.390;8.072;2022-11-20T13:34:52;33.97;;;20.60;;
22711;SDS011;11523;50.390;8.072;2022-11-20T13:37:31;35.35;;;21.65;;
22711;SDS011;11523;50.390;8.072;2022-11-20T13:40:05;40.25;;;22.67;;
22711;SDS011;11523;50.390;8.072;2022-11-20T13:42:31;38.95;;;22.88;;
22711;SDS011;11523;50.390;8.072;2022-11-20T13:45:02;37.22;;;22.50;;
22711;SDS011;11523;50.390;8.072;2022-11-20T13:47:28;39.00;;;23.80;;
22711;SDS011;11523;50.390;8.072;2022-11-20T13:49:55;36.67;;;21.65;;
22711;SDS011;11523;50.390;8.072;2022-11-20T14:02:20;40.72;;;22.27;;
22711;SDS011;11523;50.390;8.072;2022-11-20T14:04:48;33.70;;;21.00;;
22711;SDS011;11523;50.390;8.072;2022-11-20T14:07:16;34.67;;;21.40;;
22711;SDS011;11523;50.390;8.072;2022-11-20T14:09:52;36.72;;;20.45;;
22711;SDS011;11523;50.390;8.072;2022-11-20T14:12:20;35.25;;;20.70;;
22711;SDS011;11523;50.390;8.072;2022-11-20T14:14:50;34.42;;;21.40;;
22711;SDS011;11523;50.390;8.072;2022-11-20T14:17:18;34.05;;;21.55;;
22711;SDS011;11523;50.390;8.072;2022-11-20T14:19:44;41.92;;;23.33;;
22711;SDS011;11523;50.390;8.072;2022-11-20T14:24:40;30.45;;;19.92;;
22711;SDS011;11523;50.390;8.072;2022-11-20T14:27:11;32.53;;;21.58;;
22711;SDS011;11523;50.390;8.072;2022-11-20T14:29:38;34.47;;;20.35;;
22711;SDS011;11523;50.390;8.072;2022-11-20T14:32:05;32.95;;;20.02;;
22711;SDS011;11523;50.390;8.072;2022-11-20T14:34:32;30.02;;;19.88;;
22711;SDS011;11523;50.390;8.072;2022-11-20T14:37:02;31.02;;;20.35;;
22711;SDS011;11523;50.390;8.072;2022-11-20T14:39:30;29.48;;;19.80;;
22711;SDS011;11523;50.390;8.072;2022-11-20T14:41:57;31.80;;;20.05;;
22711;SDS011;11523;50.390;8.072;2022-11-20T14:44:27;31.23;;;19.92;;
22711;SDS011;11523;50.390;8.072;2022-11-20T14:46:53;30.30;;;18.58;;
22711;SDS011;11523;50.390;8.072;2022-11-20T14:49:20;26.10;;;17.65;;
22711;SDS011;11523;50.390;8.072;2022-11-20T14:51:47;26.55;;;18.77;;
22711;SDS011;11523;50.390;8.072;2022-11-20T14:54:30;27.60;;;17.48;;
22711;SDS011;11523;50.390;8.072;2022-11-20T14:57:02;30.80;;;18.58;;
22711;SDS011;11523;50.390;8.072;2022-11-20T14:59:41;31.38;;;20.17;;
22711;SDS011;11523;50.390;8.072;2022-11-20T15:02:11;30.25;;;18.88;;
22711;SDS011;11523;50.390;8.072;2022-11-20T15:04:47;31.98;;;18.33;;
22711;SDS011;11523;50.390;8.072;2022-11-20T15:07:23;26.67;;;17.38;;
22711;SDS011;11523;50.390;8.072;2022-11-20T15:09:58;27.90;;;18.55;;
22711;SDS011;11523;50.390;8.072;2022-11-20T15:12:25;28.95;;;17.88;;
22711;SDS011;11523;50.390;8.072;2022-11-20T15:14:50;29.17;;;18.50;;
22711;SDS011;11523;50.390;8.072;2022-11-20T15:17:16;28.17;;;18.30;;
22711;SDS011;11523;50.390;8.072;2022-11-20T15:19:42;27.65;;;18.23;;
22711;SDS011;11523;50.390;8.072;2022-11-20T15:22:12;27.17;;;18.25;;
22711;SDS011;11523;50.390;8.072;2022-11-20T15:24:38;28.05;;;19.05;;
22711;SDS011;11523;50.390;8.072;2022-11-20T15:27:04;28.23;;;17.85;;
22711;SDS011;11523;50.390;8.072;2022-11-20T15:29:30;26.17;;;18.08;;
22711;SDS011;11523;50.390;8.072;2022-11-20T15:31:57;28.27;;;18.15;;
22711;SDS011;11523;50.390;8.072;2022-11-20T15:34:22;28.58;;;18.13;;
22711;SDS011;11523;50.390;8.072;2022-11-20T15:36:48;26.55;;;17.90;;
22711;SDS011;11523;50.390;8.072;2022-11-20T15:39:14;28.55;;;18.40;;
22711;SDS011;11523;50.390;8.072;2022-11-20T15:41:40;33.65;;;20.17;;
22711;SDS011;11523;50.390;8.072;2022-11-20T15:44:06;27.02;;;17.55;;
22711;SDS011;11523;50.390;8.072;2022-11-20T15:46:33;28.88;;;19.67;;
22711;SDS011;11523;50.390;8.072;2022-11-20T15:49:03;28.58;;;17.88;;
22711;SDS011;11523;50.390;8.072;2022-11-20T15:51:30;26.48;;;17.73;;
22711;SDS011;11523;50.390;8.072;2022-11-20T15:53:57;28.80;;;18.95;;
22711;SDS011;11523;50.390;8.072;2022-11-20T15:56:23;28.83;;;19.15;;
22711;SDS011;11523;50.390;8.072;2022-11-20T15:58:49;27.75;;;18.15;;
22711;SDS011;11523;50.390;8.072;2022-11-20T16:01:15;27.80;;;18.40;;
22711;SDS011;11523;50.390;8.072;2022-11-20T16:03:42;27.13;;;17.85;;
22711;SDS011;11523;50.390;8.072;2022-11-20T16:06:08;29.52;;;18.45;;
22711;SDS011;11523;50.390;8.072;2022-11-20T16:08:34;26.10;;;18.25;;
22711;SDS011;11523;50.390;8.072;2022-11-20T16:11:00;28.98;;;18.23;;
22711;SDS011;11523;50.390;8.072;2022-11-20T16:13:26;27.80;;;17.80;;
22711;SDS011;11523;50.390;8.072;2022-11-20T16:16:13;27.02;;;18.08;;
22711;SDS011;11523;50.390;8.072;2022-11-20T16:18:43;28.92;;;18.85;;
22711;SDS011;11523;50.390;8.072;2022-11-20T16:21:10;27.27;;;17.17;;
22711;SDS011;11523;50.390;8.072;2022-11-20T16:23:38;30.67;;;19.02;;
22711;SDS011;11523;50.390;8.072;2022-11-20T16:26:13;27.30;;;17.75;;
22711;SDS011;11523;50.390;8.072;2022-11-20T16:28:40;29.25;;;18.88;;
22711;SDS011;11523;50.390;8.072;2022-11-20T16:31:10;30.90;;;19.27;;
22711;SDS011;11523;50.390;8.072;2022-11-20T16:33:37;35.33;;;21.55;;
22711;SDS011;11523;50.390;8.072;2022-11-20T16:36:07;33.42;;;20.77;;
22711;SDS011;11523;50.390;8.072;2022-11-20T16:38:33;30.83;;;19.58;;
22711;SDS011;11523;50.390;8.072;2022-11-20T16:41:02;32.30;;;21.40;;
22711;SDS011;11523;50.390;8.072;2022-11-20T16:43:28;31.73;;;21.08;;
22711;SDS011;11523;50.390;8.072;2022-11-20T16:45:54;31.10;;;19.88;;
22711;SDS011;11523;50.390;8.072;2022-11-20T16:48:20;27.83;;;18.92;;
22711;SDS011;11523;50.390;8.072;2022-11-20T16:50:47;36.83;;;20.63;;
22711;SDS011;11523;50.390;8.072;2022-11-20T16:53:13;66.97;;;42.25;;
22711;SDS011;11523;50.390;8.072;2022-11-20T16:55:39;47.75;;;27.90;;
22711;SDS011;11523;50.390;8.072;2022-11-20T16:58:05;45.47;;;30.10;;
22711;SDS011;11523;50.390;8.072;2022-11-20T17:00:31;37.58;;;22.40;;
22711;SDS011;11523;50.390;8.072;2022-11-20T17:02:59;33.20;;;21.27;;
22711;SDS011;11523;50.390;8.072;2022-11-20T17:05:25;38.33;;;23.50;;
22711;SDS011;11523;50.390;8.072;2022-11-20T17:07:51;38.53;;;22.45;;
22711;SDS011;11523;50.390;8.072;2022-11-20T17:10:17;38.78;;;23.35;;
22711;SDS011;11523;50.390;8.072;2022-11-20T17:12:43;58.78;;;36.03;;
22711;SDS011;11523;50.390;8.072;2022-11-20T17:15:09;42.35;;;27.33;;
22711;SDS011;11523;50.390;8.072;2022-11-20T17:17:35;45.85;;;29.70;;
22711;SDS011;11523;50.390;8.072;2022-11-20T17:20:01;39.67;;;25.05;;
22711;SDS011;11523;50.390;8.072;2022-11-20T17:22:27;47.80;;;31.50;;
22711;SDS011;11523;50.390;8.072;2022-11-20T17:24:53;42.03;;;25.80;;
22711;SDS011;11523;50.390;8.072;2022-11-20T17:27:19;43.92;;;31.38;;
22711;SDS011;11523;50.390;8.072;2022-11-20T17:29:44;39.78;;;26.40;;
22711;SDS011;11523;50.390;8.072;2022-11-20T17:32:10;29.67;;;20.92;;
22711;SDS011;11523;50.390;8.072;2022-11-20T17:34:36;33.03;;;21.77;;
22711;SDS011;11523;50.390;8.072;2022-11-20T17:37:02;39.33;;;24.63;;
22711;SDS011;11523;50.390;8.072;2022-11-20T17:39:28;36.60;;;24.67;;
22711;SDS011;11523;50.390;8.072;2022-11-20T17:41:54;31.90;;;21.80;;
22711;SDS011;11523;50.390;8.072;2022-11-20T17:44:39;32.88;;;21.60;;
22711;SDS011;11523;50.390;8.072;2022-11-20T17:47:06;33.75;;;21.17;;
22711;SDS011;11523;50.390;8.072;2022-11-20T17:49:32;32.67;;;22.40;;
22711;SDS011;11523;50.390;8.072;2022-11-20T17:51:58;35.03;;;21.98;;
22711;SDS011;11523;50.390;8.072;2022-11-20T17:54:24;34.55;;;21.65;;
22711;SDS011;11523;50.390;8.072;2022-11-20T17:56:50;34.53;;;21.17;;
22711;SDS011;11523;50.390;8.072;2022-11-20T17:59:35;36.10;;;22.23;;
22711;SDS011;11523;50.390;8.072;2022-11-20T18:02:02;32.90;;;21.48;;
22711;SDS011;11523;50.390;8.072;2022-11-20T18:04:28;33.15;;;21.52;;
22711;SDS011;11523;50.390;8.072;2022-11-20T18:06:54;32.13;;;21.70;;
22711;SDS011;11523;50.390;8.072;2022-11-20T18:09:20;34.92;;;23.13;;
22711;SDS011;11523;50.390;8.072;2022-11-20T18:11:46;32.65;;;22.10;;
22711;SDS011;11523;50.390;8.072;2022-11-20T18:14:14;30.65;;;20.42;;
22711;SDS011;11523;50.390;8.072;2022-11-20T18:17:02;33.17;;;21.30;;
22711;SDS011;11523;50.390;8.072;2022-11-20T18:19:30;31.08;;;20.73;;
22711;SDS011;11523;50.390;8.072;2022-11-20T18:21:56;30.60;;;21.33;;
22711;SDS011;11523;50.390;8.072;2022-11-20T18:24:23;27.98;;;19.55;;
22711;SDS011;11523;50.390;8.072;2022-11-20T18:26:49;30.50;;;20.20;;
22711;SDS011;11523;50.390;8.072;2022-11-20T18:29:15;32.83;;;20.75;;
22711;SDS011;11523;50.390;8.072;2022-11-20T18:31:41;34.53;;;20.58;;
22711;SDS011;11523;50.390;8.072;2022-11-20T18:34:07;30.52;;;20.45;;
22711;SDS011;11523;50.390;8.072;2022-11-20T18:36:36;31.75;;;18.98;;
22711;SDS011;11523;50.390;8.072;2022-11-20T18:39:02;33.95;;;21.00;;
22711;SDS011;11523;50.390;8.072;2022-11-20T18:41:29;26.98;;;18.02;;
22711;SDS011;11523;50.390;8.072;2022-11-20T18:44:18;25.23;;;17.02;;
22711;SDS011;11523;50.390;8.072;2022-11-20T18:47:04;21.15;;;13.52;;
22711;SDS011;11523;50.390;8.072;2022-11-20T18:49:30;23.17;;;15.05;;
22711;SDS011;11523;50.390;8.072;2022-11-20T18:51:56;18.90;;;12.70;;
22711;SDS011;11523;50.390;8.072;2022-11-20T18:54:22;24.65;;;15.13;;
22711;SDS011;11523;50.390;8.072;2022-11-20T18:56:47;17.08;;;10.93;;
22711;SDS011;11523;50.390;8.072;2022-11-20T18:59:13;17.52;;;11.65;;
22711;SDS011;11523;50.390;8.072;2022-11-20T19:01:40;7.40;;;4.80;;
22711;SDS011;11523;50.390;8.072;2022-11-20T19:04:07;5.15;;;3.58;;
22711;SDS011;11523;50.390;8.072;2022-11-20T19:06:33;6.82;;;3.97;;
22711;SDS011;11523;50.390;8.072;2022-11-20T19:08:59;5.22;;;2.80;;
22711;SDS011;11523;50.390;8.072;2022-11-20T19:11:25;4.20;;;2.60;;
22711;SDS011;11523;50.390;8.072;2022-11-20T19:13:51;2.70;;;1.70;;
22711;SDS011;11523;50.390;8.072;2022-11-20T19:16:18;2.13;;;1.65;;
22711;SDS011;11523;50.390;8.072;2022-11-20T19:18:47;1.40;;;1.25;;
22711;SDS011;11523;50.390;8.072;2022-11-20T19:21:14;1.50;;;1.40;;
22711;SDS011;11523;50.390;8.072;2022-11-20T19:23:40;1.40;;;1.20;;
22711;SDS011;11523;50.390;8.072;2022-11-20T19:26:06;3.33;;;1.20;;
22711;SDS011;11523;50.390;8.072;2022-11-20T19:28:32;1.55;;;1.20;;
22711;SDS011;11523;50.390;8.072;2022-11-20T19:31:05;1.38;;;1.23;;
22711;SDS011;11523;50.390;8.072;2022-11-20T19:33:31;1.27;;;1.17;;
22711;SDS011;11523;50.390;8.072;2022-11-20T19:36:11;2.05;;;1.08;;
22711;SDS011;11523;50.390;8.072;2022-11-20T19:38:38;1.85;;;1.65;;
22711;SDS011;11523;50.390;8.072;2022-11-20T19:41:04;2.05;;;1.70;;
22711;SDS011;11523;50.390;8.072;2022-11-20T19:43:30;2.72;;;1.90;;
22711;SDS011;11523;50.390;8.072;2022-11-20T19:45:56;2.63;;;1.80;;
22711;SDS011;11523;50.390;8.072;2022-11-20T19:48:22;2.20;;;1.70;;
22711;SDS011;11523;50.390;8.072;2022-11-20T19:50:48;1.92;;;1.65;;
22711;SDS011;11523;50.390;8.072;2022-11-20T19:53:14;1.65;;;1.27;;
22711;SDS011;11523;50.390;8.072;2022-11-20T19:55:40;2.58;;;1.70;;
22711;SDS011;11523;50.390;8.072;2022-11-20T19:58:07;2.03;;;1.15;;
22711;SDS011;11523;50.390;8.072;2022-11-20T20:00:33;3.88;;;1.10;;
22711;SDS011;11523;50.390;8.072;2022-11-20T20:02:59;2.15;;;1.30;;
22711;SDS011;11523;50.390;8.072;2022-11-20T20:05:25;2.38;;;1.40;;
22711;SDS011;11523;50.390;8.072;2022-11-20T20:07:51;2.28;;;1.13;;
22711;SDS011;11523;50.390;8.072;2022-11-20T20:10:17;3.33;;;1.30;;
22711;SDS011;11523;50.390;8.072;2022-11-20T20:12:44;4.43;;;1.50;;
22711;SDS011;11523;50.390;8.072;2022-11-20T20:15:10;4.63;;;1.42;;
22711;SDS011;11523;50.390;8.072;2022-11-20T20:17:36;2.33;;;1.30;;
22711;SDS011;11523;50.390;8.072;2022-11-20T20:20:02;3.03;;;1.60;;
22711;SDS011;11523;50.390;8.072;2022-11-20T20:22:28;2.97;;;1.92;;
22711;SDS011;11523;50.390;8.072;2022-11-20T20:24:54;5.05;;;1.60;;
22711;SDS011;11523;50.390;8.072;2022-11-20T20:27:20;0.88;;;0.77;;
22711;SDS011;11523;50.390;8.072;2022-11-20T20:29:46;2.33;;;1.58;;
22711;SDS011;11523;50.390;8.072;2022-11-20T20:32:11;1.50;;;0.93;;
22711;SDS011;11523;50.390;8.072;2022-11-20T20:34:37;2.00;;;1.63;;
22711;SDS011;11523;50.390;8.072;2022-11-20T20:37:03;4.60;;;1.90;;
22711;SDS011;11523;50.390;8.072;2022-11-20T20:39:35;3.05;;;1.70;;
22711;SDS011;11523;50.390;8.072;2022-11-20T20:42:01;3.05;;;1.55;;
22711;SDS011;11523;50.390;8.072;2022-11-20T20:44:27;4.90;;;1.30;;
22711;SDS011;11523;50.390;8.072;2022-11-20T20:47:12;4.97;;;1.80;;
22711;SDS011;11523;50.390;8.072;2022-11-20T20:49:38;4.35;;;1.83;;
22711;SDS011;11523;50.390;8.072;2022-11-20T20:52:07;3.03;;;1.38;;